createdAt,value
2022-08-05T03:20:15.016Z,21.35
2022-08-05T03:23:24.644Z,21.29
2022-08-05T03:26:34.503Z,21.28
2022-08-05T03:29:45.854Z,21.32
2022-08-05T03:33:14.183Z,21.35
2022-08-05T03:36:31.502Z,21.40
2022-08-05T03:40:01.442Z,21.43
2022-08-05T03:43:58.646Z,21.46
2022-08-05T03:46:43.381Z,21.41
2022-08-05T03:49:55.869Z,21.42
2022-08-05T03:54:59.972Z,21.39
2022-08-05T03:56:46.298Z,21.33
2022-08-05T04:00:01.661Z,21.26
2022-08-05T04:03:26.637Z,21.21
2022-08-05T04:06:48.049Z,21.17
2022-08-05T04:10:03.309Z,21.12
2022-08-05T04:13:13.438Z,21.06
2022-08-05T04:16:25.531Z,20.99
2022-08-05T04:19:46.139Z,21.03
2022-08-05T04:23:03.910Z,21.07
2022-08-05T04:26:17.437Z,21.07
2022-08-05T04:29:29.251Z,21.06
2022-08-05T04:32:42.418Z,21.10
2022-08-05T04:36:16.740Z,21.17
2022-08-05T04:39:24.444Z,21.19
2022-08-05T04:42:38.173Z,21.19
2022-08-05T04:45:54.918Z,21.18
2022-08-05T04:49:14.510Z,21.18
2022-08-05T04:52:32.558Z,21.14
2022-08-05T04:56:32.356Z,21.11
2022-08-05T04:59:24.064Z,21.07
2022-08-05T05:09:58.395Z,21.08
2022-08-05T05:13:11.164Z,21.15
2022-08-05T05:16:30.343Z,21.23
2022-08-05T05:19:47.360Z,21.27
2022-08-05T05:22:57.388Z,21.32
2022-08-05T05:26:09.541Z,21.38
2022-08-05T05:29:19.240Z,21.44
2022-08-05T05:32:30.044Z,21.46
2022-08-05T05:35:42.420Z,21.46
2022-08-05T05:38:52.217Z,21.46
2022-08-05T05:42:09.070Z,21.48
2022-08-05T05:45:19.715Z,21.61
2022-08-05T05:48:32.930Z,21.77
2022-08-05T05:51:50.414Z,21.86
2022-08-05T05:55:07.442Z,21.98
2022-08-05T05:58:31.412Z,22.11
2022-08-05T06:01:57.150Z,22.20
2022-08-05T06:05:16.687Z,22.22
2022-08-05T06:08:32.589Z,22.17
2022-08-05T06:11:42.552Z,22.11
2022-08-05T06:15:16.404Z,21.90
2022-08-05T06:18:33.365Z,21.80
2022-08-05T06:21:53.279Z,21.82
2022-08-05T06:25:25.028Z,21.84
2022-08-05T06:28:34.895Z,21.86
2022-08-05T06:31:45.884Z,21.89
2022-08-05T06:34:59.210Z,21.85
2022-08-05T06:38:12.361Z,21.85
2022-08-05T06:41:24.831Z,21.92
2022-08-05T06:44:36.698Z,21.99
2022-08-05T06:48:44.104Z,21.98
2022-08-05T06:51:23.743Z,22.03
2022-08-05T06:54:39.183Z,22.08
2022-08-05T06:58:03.331Z,22.11
2022-08-05T07:01:20.766Z,22.13
2022-08-05T07:04:30.914Z,22.11
2022-08-05T07:07:43.997Z,22.04
2022-08-05T07:11:06.905Z,22.02
2022-08-05T07:14:36.164Z,22.00
2022-08-05T07:17:59.876Z,21.96
2022-08-05T07:21:15.204Z,21.93
2022-08-05T07:24:43.925Z,21.94
2022-08-05T07:28:11.784Z,22.03
2022-08-05T07:31:53.980Z,22.17
2022-08-05T07:34:58.739Z,22.27
2022-08-05T07:38:08.223Z,22.22
2022-08-05T07:42:07.959Z,22.19
2022-08-05T07:44:57.692Z,22.05
2022-08-05T07:48:10.035Z,22.01
2022-08-05T07:51:23.805Z,21.97
2022-08-05T07:54:49.145Z,21.95
2022-08-05T07:58:03.069Z,21.96
2022-08-05T08:01:17.265Z,21.96
2022-08-05T08:04:37.522Z,22.06
2022-08-05T08:07:59.006Z,22.21
2022-08-05T08:11:10.077Z,22.28
2022-08-05T08:14:27.747Z,22.33
2022-08-05T08:17:38.604Z,22.38
2022-08-05T08:21:02.963Z,22.45
2022-08-05T08:24:16.391Z,22.55
2022-08-05T08:27:40.088Z,22.58
2022-08-05T08:30:57.520Z,22.62
2022-08-05T08:34:10.688Z,22.66
2022-08-05T08:37:21.828Z,22.74
2022-08-05T08:40:38.192Z,22.86
2022-08-05T08:45:23.097Z,22.94
2022-08-05T08:48:05.619Z,22.88
2022-08-05T08:51:22.492Z,22.94
2022-08-05T08:54:27.204Z,23.00
2022-08-05T08:57:48.138Z,23.05
2022-08-05T09:01:10.923Z,23.08
2022-08-05T09:04:31.052Z,23.28
2022-08-05T09:07:56.926Z,23.43
2022-08-05T09:11:08.642Z,23.50
2022-08-05T09:14:57.621Z,23.61
2022-08-05T09:17:53.044Z,23.84
2022-08-05T09:21:02.623Z,24.12
2022-08-05T09:24:22.338Z,24.36
2022-08-05T09:28:06.028Z,24.47
2022-08-05T09:31:44.139Z,24.43
2022-08-05T09:34:49.337Z,24.38
2022-08-05T09:38:12.119Z,24.51
2022-08-05T09:41:38.975Z,24.62
2022-08-05T09:44:50.567Z,24.68
2022-08-05T09:48:00.756Z,24.83
2022-08-05T09:51:14.929Z,24.99
2022-08-05T09:54:31.861Z,25.06
2022-08-05T09:57:45.156Z,25.14
2022-08-05T10:01:00.405Z,25.18
2022-08-05T10:04:13.526Z,25.15
2022-08-05T10:08:10.433Z,25.06
2022-08-05T10:10:55.500Z,25.30
2022-08-05T10:14:23.949Z,25.57
2022-08-05T10:17:37.177Z,25.74
2022-08-05T10:20:52.366Z,25.81
2022-08-05T10:24:06.261Z,25.64
2022-08-05T10:27:20.230Z,25.56
2022-08-05T10:31:20.300Z,25.44
2022-08-05T10:34:12.532Z,25.15
2022-08-05T10:37:26.721Z,24.88
2022-08-05T10:41:00.279Z,24.80
2022-08-05T10:44:13.638Z,24.87
2022-08-05T10:47:36.377Z,24.90
2022-08-05T10:50:59.488Z,25.30
2022-08-05T10:54:28.321Z,25.68
2022-08-05T10:57:44.838Z,25.77
2022-08-05T11:01:03.065Z,25.97
2022-08-05T11:04:17.246Z,26.05
2022-08-05T11:07:32.627Z,26.11
2022-08-05T11:11:01.469Z,26.13
2022-08-05T11:14:42.868Z,26.32
2022-08-05T11:18:09.443Z,26.35
2022-08-05T11:21:40.963Z,26.46
2022-08-05T11:26:04.312Z,26.89
2022-08-05T11:28:55.896Z,27.14
2022-08-05T11:32:25.308Z,26.84
2022-08-05T11:36:02.821Z,27.11
2022-08-05T11:40:00.758Z,27.55
2022-08-05T11:43:58.424Z,28.07
2022-08-05T11:47:09.344Z,28.04
2022-08-05T11:50:21.820Z,28.26
2022-08-05T11:53:33.770Z,28.46
2022-08-05T11:56:53.400Z,28.43
2022-08-05T12:00:31.506Z,28.38
2022-08-05T12:03:44.880Z,28.20
2022-08-05T12:07:07.913Z,28.08
2022-08-05T12:10:20.379Z,28.09
2022-08-05T12:13:49.513Z,28.17
2022-08-05T12:18:00.708Z,28.17
2022-08-05T12:20:38.450Z,27.95
2022-08-05T12:23:55.645Z,27.60
2022-08-05T12:27:09.631Z,27.36
2022-08-05T12:30:38.779Z,27.21
2022-08-05T12:33:58.467Z,27.01
2022-08-05T12:37:17.495Z,26.92
2022-08-05T12:40:31.369Z,26.86
2022-08-05T12:43:51.343Z,26.76
2022-08-05T12:47:14.819Z,26.61
2022-08-05T12:50:30.980Z,26.54
2022-08-05T12:53:44.925Z,26.98
2022-08-05T12:57:09.577Z,27.16
2022-08-05T13:02:03.140Z,27.33
2022-08-05T13:03:59.767Z,27.56
2022-08-05T13:07:16.066Z,27.86
2022-08-05T13:10:26.896Z,28.36
2022-08-05T13:14:06.172Z,29.28
2022-08-05T13:17:13.089Z,29.88
2022-08-05T13:20:35.508Z,30.36
2022-08-05T13:23:50.637Z,30.75
2022-08-05T13:27:00.737Z,30.80
2022-08-05T13:30:34.925Z,30.47
2022-08-05T13:34:24.079Z,29.20
2022-08-05T13:37:27.162Z,28.02
2022-08-05T13:40:49.826Z,27.41
2022-08-05T13:44:02.061Z,26.84
2022-08-05T13:47:11.655Z,26.50
2022-08-05T13:50:43.686Z,26.28
2022-08-05T13:53:58.079Z,26.01
2022-08-05T13:57:09.644Z,25.67
2022-08-05T14:00:27.165Z,25.56
2022-08-05T14:03:37.401Z,25.28
2022-08-05T14:06:48.770Z,25.01
2022-08-05T14:10:29.010Z,24.66
2022-08-05T14:13:42.892Z,24.10
2022-08-05T14:16:55.379Z,23.84
2022-08-05T14:20:17.634Z,23.58
2022-08-05T14:23:36.420Z,23.52
2022-08-05T14:27:08.469Z,23.56
2022-08-05T14:30:20.164Z,23.45
2022-08-05T14:33:32.496Z,23.42
2022-08-05T14:37:01.057Z,23.53
2022-08-05T14:40:14.219Z,23.83
2022-08-05T14:43:59.694Z,23.84
2022-08-05T14:47:01.132Z,23.59
2022-08-05T14:50:18.071Z,23.23
2022-08-05T14:53:29.898Z,23.09
2022-08-05T14:56:44.337Z,23.15
2022-08-05T14:59:57.799Z,23.20
2022-08-05T15:03:09.506Z,23.26
2022-08-05T15:06:19.343Z,23.13
2022-08-05T15:09:51.555Z,22.96
2022-08-05T15:13:04.895Z,22.86
2022-08-05T15:16:22.888Z,22.76
2022-08-05T15:19:32.893Z,22.81
2022-08-05T15:22:42.456Z,23.09
2022-08-05T15:25:55.920Z,23.03
2022-08-05T15:29:08.124Z,22.99
2022-08-05T15:32:18.859Z,23.01
2022-08-05T15:35:36.329Z,22.76
2022-08-05T15:40:58.278Z,22.62
2022-08-05T15:42:49.936Z,22.54
2022-08-05T15:46:00.284Z,22.48
2022-08-05T15:49:23.130Z,22.39
2022-08-05T15:52:54.424Z,22.31
2022-08-05T15:56:08.083Z,22.33
2022-08-05T15:59:22.970Z,22.50
2022-08-05T16:02:32.918Z,22.44
2022-08-05T16:05:43.955Z,22.47
2022-08-05T16:09:00.407Z,22.39
2022-08-05T16:12:15.239Z,22.40
2022-08-05T16:15:25.150Z,22.42
2022-08-05T16:18:52.768Z,22.40
2022-08-05T16:22:04.846Z,22.45
2022-08-05T16:25:21.837Z,22.45
2022-08-05T16:28:42.137Z,22.43
2022-08-05T16:31:57.153Z,22.42
2022-08-05T16:35:08.054Z,22.42
2022-08-05T16:38:25.265Z,22.39
2022-08-05T16:42:13.616Z,22.41
2022-08-05T16:46:04.753Z,22.49
2022-08-05T16:48:43.987Z,22.39
2022-08-05T16:51:54.871Z,22.24
2022-08-05T16:55:09.267Z,22.05
2022-08-05T16:58:19.669Z,21.93
2022-08-05T17:01:53.191Z,21.92
2022-08-05T17:04:59.204Z,21.87
2022-08-05T17:08:09.327Z,21.95
2022-08-05T17:11:27.599Z,22.06
2022-08-05T17:14:38.346Z,22.08
2022-08-05T17:17:55.245Z,22.13
2022-08-05T17:21:05.042Z,22.21
2022-08-05T17:24:28.158Z,22.27
2022-08-05T17:27:43.521Z,22.36
2022-08-05T17:30:55.364Z,22.35
2022-08-05T17:34:05.051Z,22.33
2022-08-05T17:37:40.721Z,22.38
2022-08-05T17:40:44.574Z,22.47
2022-08-05T17:43:58.335Z,22.47
2022-08-05T17:47:08.691Z,22.51
2022-08-05T17:50:28.888Z,22.58
2022-08-05T17:53:39.724Z,22.50
2022-08-05T17:56:56.287Z,22.48
2022-08-05T18:00:14.334Z,22.44
2022-08-05T18:03:56.129Z,22.38
2022-08-05T18:06:54.314Z,22.41
2022-08-05T18:10:11.526Z,22.42
2022-08-05T18:13:25.742Z,22.42
2022-08-05T18:16:51.280Z,22.40
2022-08-05T18:20:04.302Z,22.37
2022-08-05T18:23:13.859Z,22.31
2022-08-05T18:26:32.034Z,22.21
2022-08-05T18:29:48.216Z,22.16
2022-08-05T18:33:08.521Z,22.11
2022-08-05T18:36:27.924Z,22.09
2022-08-05T18:40:29.613Z,22.02
2022-08-05T18:43:16.412Z,21.88
2022-08-05T18:46:28.952Z,21.78
2022-08-05T18:49:58.428Z,21.73
2022-08-05T18:53:19.170Z,21.66
2022-08-05T18:56:32.205Z,21.51
2022-08-05T19:00:02.578Z,21.43
2022-08-05T19:03:16.086Z,21.32
2022-08-05T19:06:37.350Z,21.16
2022-08-05T19:09:54.687Z,20.99
2022-08-05T19:13:04.903Z,20.84
2022-08-05T19:16:28.523Z,20.67
2022-08-05T19:19:47.050Z,20.54
2022-08-05T19:23:01.736Z,20.47
2022-08-05T19:26:17.404Z,20.33
2022-08-05T19:29:35.925Z,20.20
2022-08-05T19:32:46.500Z,20.14
2022-08-05T19:35:57.735Z,20.07
2022-08-05T19:39:10.971Z,19.95
2022-08-05T19:42:34.913Z,19.83
2022-08-05T19:45:54.678Z,19.74
2022-08-05T19:49:06.938Z,19.67
2022-08-05T19:52:30.396Z,19.71
2022-08-05T19:56:14.497Z,19.68
2022-08-05T19:59:54.670Z,19.67
2022-08-05T20:02:52.780Z,19.62
2022-08-05T20:06:11.878Z,19.55
2022-08-05T20:09:25.609Z,19.45
2022-08-05T20:12:36.701Z,19.35
2022-08-05T20:15:51.944Z,19.28
2022-08-05T20:19:05.501Z,19.24
2022-08-05T20:22:15.106Z,19.16
2022-08-05T20:25:24.682Z,19.09
2022-08-05T20:28:50.129Z,19.03
2022-08-05T20:32:01.823Z,18.94
2022-08-05T20:35:12.491Z,18.91
2022-08-05T20:38:29.539Z,18.86
2022-08-05T20:41:49.129Z,18.85
2022-08-05T20:45:17.064Z,18.78
2022-08-05T20:48:35.374Z,18.75
2022-08-05T20:51:46.335Z,18.65
2022-08-05T20:55:55.473Z,18.62
2022-08-05T20:58:35.171Z,18.56
2022-08-05T21:01:51.508Z,18.51
2022-08-05T21:05:02.483Z,18.46
2022-08-05T21:08:12.062Z,18.36
2022-08-05T21:12:10.424Z,18.35
2022-08-05T21:14:56.582Z,18.29
2022-08-05T21:18:09.455Z,18.22
2022-08-05T21:21:26.377Z,18.12
2022-08-05T21:24:54.099Z,17.99
2022-08-05T21:28:04.631Z,17.90
2022-08-05T21:31:14.217Z,17.90
2022-08-05T21:34:28.232Z,17.94
